Time;durP1;ratioP1;P1;durP2;ratioP2;P2;SDS_P1;SDS_P2;PMS_P1;PMS_P2;Temp;Humidity;BMP_temperature;BMP_pressure;BME280_temperature;BME280_humidity;BME280_pressure;Samples;Min_cycle;Max_cycle;Signal;HPM_P1;HPM_P2
2023/08/09 00:00:02;;;;;;;1.65;1.55;;;;;;;13.92;71.21;96572.22;5013114;28;20050;-70
2023/08/09 00:02:29;;;;;;;3.15;1.40;;;;;;;13.90;71.26;96574.94;5013230;28;20050;-70
2023/08/09 00:04:57;;;;;;;4.35;1.50;;;;;;;13.95;71.21;96580.81;5013203;28;20483;-70
2023/08/09 00:07:24;;;;;;;3.38;1.50;;;;;;;13.93;71.37;96574.78;5013077;28;20447;-70
2023/08/09 00:09:51;;;;;;;1.50;1.40;;;;;;;13.94;71.35;96580.91;5013196;28;20061;-69
2023/08/09 00:12:18;;;;;;;1.55;1.45;;;;;;;13.97;71.11;96568.44;5013107;28;20415;-70
2023/08/09 00:14:47;;;;;;;1.40;1.30;;;;;;;13.96;70.84;96568.50;5013093;28;20074;-71
2023/08/09 00:17:14;;;;;;;1.40;1.30;;;;;;;13.96;70.72;96577.25;5013078;28;20041;-70
2023/08/09 00:19:41;;;;;;;1.58;1.45;;;;;;;13.96;70.97;96572.00;5013051;28;20050;-70
2023/08/09 00:22:08;;;;;;;1.90;1.60;;;;;;;13.95;71.19;96574.69;5013037;28;20046;-70
2023/08/09 00:24:36;;;;;;;1.60;1.50;;;;;;;13.96;70.75;96577.25;5012619;28;20054;-70
2023/08/09 00:27:03;;;;;;;1.50;1.40;;;;;;;13.95;71.13;96569.44;5012978;28;20050;-70
2023/08/09 00:29:30;;;;;;;1.45;1.35;;;;;;;13.93;70.92;96573.94;5013074;28;20045;-70
2023/08/09 00:31:59;;;;;;;2.75;1.70;;;;;;;13.86;71.04;96574.25;5012954;28;20048;-70
2023/08/09 00:34:26;;;;;;;1.80;1.50;;;;;;;13.78;71.25;96568.53;5012956;28;20077;-70
2023/08/09 00:36:53;;;;;;;3.40;1.38;;;;;;;13.79;71.69;96572.00;5012862;28;20065;-70
2023/08/09 00:39:20;;;;;;;1.92;1.73;;;;;;;13.79;71.86;96572.88;5012878;28;20057;-70
2023/08/09 00:41:48;;;;;;;3.05;1.52;;;;;;;13.81;71.97;96573.63;5012939;28;20077;-69
2023/08/09 00:44:16;;;;;;;1.80;1.63;;;;;;;13.77;71.94;96575.56;5012711;28;20062;-70
2023/08/09 00:46:46;;;;;;;1.80;1.55;;;;;;;13.79;72.10;96569.38;5012806;28;20499;-70
2023/08/09 00:49:16;;;;;;;2.17;1.80;;;;;;;13.75;72.14;96566.03;5012762;28;20549;-70
2023/08/09 00:51:46;;;;;;;1.73;1.63;;;;;;;13.77;71.90;96574.72;5012839;28;20125;-70
2023/08/09 00:54:15;;;;;;;1.98;1.70;;;;;;;13.71;71.99;96578.50;5012535;28;20061;-70
2023/08/09 00:56:44;;;;;;;1.70;1.45;;;;;;;13.71;72.31;96582.91;5012517;28;20049;-70
2023/08/09 00:59:12;;;;;;;1.75;1.60;;;;;;;13.73;71.89;96575.81;5012525;28;20495;-69
2023/08/09 01:01:39;;;;;;;2.05;1.70;;;;;;;13.74;71.99;96572.25;5014293;28;20510;-70
2023/08/09 01:04:07;;;;;;;1.90;1.70;;;;;;;13.73;71.98;96570.56;5016161;28;20139;-70
2023/08/09 01:06:54;;;;;;;3.22;1.70;;;;;;;13.69;72.02;96575.09;5016278;28;20100;-70
2023/08/09 01:09:29;;;;;;;2.00;1.90;;;;;;;13.72;72.28;96574.09;5016069;28;20045;-70
2023/08/09 01:12:04;;;;;;;3.13;1.83;;;;;;;13.71;71.83;96568.00;5016050;28;20046;-69
2023/08/09 01:14:33;;;;;;;2.20;1.73;;;;;;;13.68;71.98;96568.16;5015996;28;20518;-69
2023/08/09 01:17:02;;;;;;;2.40;1.77;;;;;;;13.70;72.12;96579.41;5015998;28;20049;-69
2023/08/09 01:19:38;;;;;;;1.88;1.77;;;;;;;13.70;72.35;96578.59;5015887;28;20050;-70
2023/08/09 01:22:13;;;;;;;3.00;1.65;;;;;;;13.67;72.66;96576.09;5015959;28;20046;-69
2023/08/09 01:24:42;;;;;;;1.80;1.70;;;;;;;13.63;72.99;96565.75;5015548;28;20167;-69
2023/08/09 01:27:09;;;;;;;2.75;2.00;;;;;;;13.72;73.04;96567.06;5015649;28;20403;-69
2023/08/09 01:29:37;;;;;;;2.30;1.80;;;;;;;13.80;73.44;96560.56;5015822;28;20052;-69
2023/08/09 01:32:03;;;;;;;6.47;1.98;;;;;;;13.86;73.24;96565.50;5015670;28;20042;-70
2023/08/09 01:34:31;;;;;;;4.82;1.85;;;;;;;13.96;73.28;96564.09;5015692;28;20388;-69
2023/08/09 01:37:04;;;;;;;1.95;1.85;;;;;;;14.00;72.33;96564.81;5015729;28;20121;-69
2023/08/09 01:39:36;;;;;;;2.47;2.05;;;;;;;13.93;72.13;96559.00;5015484;28;20446;-70
2023/08/09 01:42:06;;;;;;;2.08;1.90;;;;;;;13.96;72.18;96565.88;5015496;28;20567;-69
2023/08/09 01:44:35;;;;;;;1.90;1.80;;;;;;;13.87;71.93;96568.06;5015411;28;20050;-70
2023/08/09 01:47:03;;;;;;;2.42;1.88;;;;;;;13.77;71.95;96570.31;5015243;28;20053;-69
2023/08/09 01:49:30;;;;;;;2.55;2.35;;;;;;;13.79;71.48;96570.25;5015310;28;20050;-69
2023/08/09 01:51:57;;;;;;;2.05;1.85;;;;;;;13.80;71.41;96571.06;5015321;28;20046;-70
2023/08/09 01:54:24;;;;;;;2.00;1.80;;;;;;;13.71;71.85;96570.63;5015176;28;20046;-70
2023/08/09 01:56:51;;;;;;;1.70;1.60;;;;;;;13.70;71.91;96570.69;5015281;28;20050;-69
2023/08/09 01:59:19;;;;;;;2.10;1.98;;;;;;;13.71;71.73;96575.03;5015183;28;20461;-70
2023/08/09 02:01:46;;;;;;;2.35;2.15;;;;;;;13.68;71.65;96575.16;5014971;28;20042;-70
2023/08/09 02:04:13;;;;;;;2.40;2.20;;;;;;;13.64;71.86;96575.31;5014952;28;20128;-70
2023/08/09 02:06:41;;;;;;;2.00;1.90;;;;;;;13.62;71.95;96576.34;5014948;28;20135;-70
2023/08/09 02:09:08;;;;;;;2.40;2.20;;;;;;;13.62;71.91;96589.47;5014999;28;20149;-70
2023/08/09 02:11:35;;;;;;;2.20;1.98;;;;;;;13.64;72.20;96582.38;5014428;28;20077;-70
2023/08/09 02:14:03;;;;;;;2.10;2.00;;;;;;;13.62;72.02;96592.09;5014868;28;20116;-70
2023/08/09 02:16:32;;;;;;;2.50;2.30;;;;;;;13.55;72.28;96595.97;5014791;28;20635;-70
2023/08/09 02:18:59;;;;;;;2.08;1.98;;;;;;;13.48;73.21;96598.84;5014712;28;20046;-69
2023/08/09 02:21:27;;;;;;;2.72;2.20;;;;;;;13.54;73.04;96597.72;5014601;28;20057;-70
2023/08/09 02:23:54;;;;;;;2.10;2.00;;;;;;;13.58;72.32;96603.69;5014531;28;20050;-70
2023/08/09 02:26:21;;;;;;;4.50;1.73;;;;;;;13.54;72.49;96600.38;5014391;28;20045;-70
2023/08/09 02:28:50;;;;;;;2.83;2.20;;;;;;;13.52;72.46;96597.81;5014581;28;20104;-70
2023/08/09 02:31:18;;;;;;;2.53;2.33;;;;;;;13.56;72.68;96605.53;5014430;28;20104;-69
2023/08/09 02:33:47;;;;;;;2.63;2.30;;;;;;;13.55;72.81;96607.34;5014565;28;20050;-70
2023/08/09 02:36:14;;;;;;;2.50;2.30;;;;;;;13.55;72.88;96617.00;5014548;28;20057;-69
2023/08/09 02:38:41;;;;;;;2.60;2.40;;;;;;;13.52;72.86;96608.31;5014481;28;20077;-69
2023/08/09 02:41:09;;;;;;;2.20;2.00;;;;;;;13.61;73.14;96601.75;5014355;28;20557;-69
2023/08/09 02:43:37;;;;;;;2.42;2.22;;;;;;;13.63;72.43;96604.31;5014348;28;20053;-70
2023/08/09 02:46:05;;;;;;;2.58;2.38;;;;;;;13.49;72.07;96616.34;5014306;28;20046;-69
2023/08/09 02:48:32;;;;;;;2.38;2.20;;;;;;;13.43;72.69;96614.00;5014149;28;20057;-70
2023/08/09 02:51:01;;;;;;;2.72;2.53;;;;;;;13.31;73.43;96610.19;5014142;28;20088;-69
2023/08/09 02:53:34;;;;;;;3.80;2.72;;;;;;;13.18;74.40;96617.78;5014129;28;20046;-69
2023/08/09 02:56:01;;;;;;;3.17;2.97;;;;;;;13.09;74.97;96620.84;5014082;28;20542;-69
2023/08/09 02:58:29;;;;;;;2.70;2.50;;;;;;;13.10;74.70;96622.56;5014174;28;20119;-69
2023/08/09 03:00:56;;;;;;;2.78;2.58;;;;;;;13.09;74.68;96621.69;5014013;28;20060;-69
2023/08/09 03:03:23;;;;;;;2.53;2.33;;;;;;;13.09;74.76;96620.84;5013973;28;20427;-69
2023/08/09 03:05:50;;;;;;;3.42;2.63;;;;;;;13.13;74.16;96625.06;5013921;28;20056;-70
2023/08/09 03:08:19;;;;;;;5.63;2.72;;;;;;;13.11;73.56;96629.50;5014039;28;20053;-69
2023/08/09 03:10:46;;;;;;;2.70;2.50;;;;;;;13.05;73.39;96629.78;5013973;28;20058;-69
2023/08/09 03:13:13;;;;;;;2.83;2.63;;;;;;;13.00;73.54;96630.00;5013782;28;20042;-69
2023/08/09 03:15:40;;;;;;;2.80;2.60;;;;;;;12.90;75.06;96626.97;5013757;28;20077;-70
2023/08/09 03:18:07;;;;;;;2.75;2.55;;;;;;;12.89;75.65;96636.59;5013767;28;20137;-69
2023/08/09 03:20:35;;;;;;;3.00;2.80;;;;;;;12.95;75.13;96638.13;5013643;28;20128;-70
2023/08/09 03:23:04;;;;;;;5.68;2.70;;;;;;;13.04;74.81;96639.47;5013535;28;20128;-69
2023/08/09 03:25:34;;;;;;;3.08;2.88;;;;;;;13.11;74.46;96638.25;5013214;28;20756;-70
2023/08/09 03:28:02;;;;;;;3.58;3.25;;;;;;;13.12;73.59;96639.09;5013685;28;20046;-69
2023/08/09 03:30:29;;;;;;;4.43;2.85;;;;;;;13.11;74.14;96635.63;5013623;28;20069;-69
2023/08/09 03:32:56;;;;;;;3.30;3.00;;;;;;;13.16;73.88;96635.41;5013618;28;20092;-69
2023/08/09 03:35:23;;;;;;;3.05;2.80;;;;;;;13.16;74.32;96653.81;5013690;28;20082;-69
2023/08/09 03:37:50;;;;;;;3.58;3.25;;;;;;;13.25;74.66;96647.25;5013565;28;20439;-70
2023/08/09 03:40:18;;;;;;;3.38;3.08;;;;;;;13.28;74.32;96657.63;5013559;28;20076;-69
2023/08/09 03:42:46;;;;;;;5.85;3.15;;;;;;;13.33;73.88;96660.03;5013498;28;20049;-69
2023/08/09 03:45:14;;;;;;;5.30;2.90;;;;;;;13.33;73.51;96660.03;5013365;28;20511;-69
2023/08/09 03:47:41;;;;;;;4.63;3.20;;;;;;;13.35;73.36;96663.44;5013309;28;20162;-69
2023/08/09 03:50:09;;;;;;;4.35;3.13;;;;;;;13.37;73.07;96669.47;5013336;28;20133;-69
2023/08/09 03:52:36;;;;;;;3.40;3.10;;;;;;;13.38;73.37;96663.28;5013249;28;20074;-70
2023/08/09 03:55:03;;;;;;;3.10;2.90;;;;;;;13.43;73.34;96676.22;5013231;28;20050;-69
2023/08/09 03:57:30;;;;;;;3.55;2.60;;;;;;;13.53;72.30;96680.13;5013123;28;20088;-69
2023/08/09 03:59:59;;;;;;;4.18;2.67;;;;;;;13.64;72.44;96679.63;5013153;28;20042;-69
2023/08/09 04:02:26;;;;;;;3.72;2.25;;;;;;;13.95;72.39;96679.88;5013294;28;20050;-69
2023/08/09 04:04:53;;;;;;;3.42;2.45;;;;;;;14.52;70.50;96684.94;5013556;28;20088;-69
2023/08/09 04:07:21;;;;;;;3.38;1.90;;;;;;;15.09;68.44;96682.88;5013621;28;20511;-70
2023/08/09 04:09:48;;;;;;;2.65;2.30;;;;;;;15.69;66.59;96691.06;5013552;28;20046;-69
2023/08/09 04:12:15;;;;;;;2.50;1.77;;;;;;;16.30;63.33;96700.81;5013216;28;20042;-70
2023/08/09 04:14:43;;;;;;;3.67;1.70;;;;;;;16.81;62.28;96699.59;5013258;28;20088;-70
2023/08/09 04:17:12;;;;;;;1.60;1.50;;;;;;;17.40;60.15;96701.28;5013329;28;20049;-69
2023/08/09 04:19:39;;;;;;;2.22;1.70;;;;;;;17.94;58.31;96704.91;5013314;28;20050;-70
2023/08/09 04:22:07;;;;;;;7.60;1.45;;;;;;;18.43;56.63;96704.44;5013218;28;20458;-70
2023/08/09 04:24:36;;;;;;;1.42;1.33;;;;;;;18.89;54.89;96702.22;5012645;28;20046;-70
2023/08/09 04:27:03;;;;;;;3.20;1.40;;;;;;;19.31;54.17;96702.88;5012916;28;20133;-70
2023/08/09 04:29:31;;;;;;;1.30;1.20;;;;;;;19.71;53.33;96706.25;5012908;28;20065;-70
2023/08/09 04:31:59;;;;;;;1.10;1.10;;;;;;;20.10;52.90;96713.25;5012940;28;20499;-70
2023/08/09 04:34:28;;;;;;;0.95;0.95;;;;;;;20.50;50.72;96709.41;5013085;28;20058;-70
2023/08/09 04:36:56;;;;;;;1.00;1.00;;;;;;;20.66;50.78;96712.59;5017140;28;20046;-70
2023/08/09 04:39:23;;;;;;;2.38;1.38;;;;;;;20.68;50.44;96705.31;5017139;28;20108;-70
2023/08/09 04:41:51;;;;;;;1.38;1.15;;;;;;;20.74;50.24;96706.66;5016756;28;20050;-70
2023/08/09 04:44:19;;;;;;;1.13;1.02;;;;;;;20.74;50.18;96704.00;5016666;28;20049;-70
2023/08/09 04:46:49;;;;;;;1.02;1.02;;;;;;;20.83;50.97;96707.78;5016568;28;20384;-70
2023/08/09 04:49:17;;;;;;;3.42;1.20;;;;;;;20.94;50.94;96712.28;5016628;28;20046;-70
2023/08/09 04:51:46;;;;;;;1.17;0.93;;;;;;;21.26;50.78;96718.69;5016316;28;20061;-70
2023/08/09 04:54:14;;;;;;;1.00;1.00;;;;;;;21.59;50.60;96723.13;5016404;28;20053;-70
2023/08/09 04:56:41;;;;;;;1.10;1.10;;;;;;;21.89;49.88;96726.16;5016484;28;20128;-70
2023/08/09 04:59:08;;;;;;;3.28;1.10;;;;;;;22.29;48.45;96721.16;5016279;28;20054;-70
2023/08/09 05:01:36;;;;;;;3.67;1.17;;;;;;;22.65;46.72;96727.09;5016110;28;20504;-70
2023/08/09 05:04:03;;;;;;;0.98;0.98;;;;;;;23.02;45.71;96728.41;5016006;28;20510;-70
2023/08/09 05:06:32;;;;;;;1.10;1.00;;;;;;;23.38;46.33;96714.72;5016096;28;20487;-70
2023/08/09 05:09:06;;;;;;;3.70;1.25;;;;;;;23.68;44.23;96718.31;5016297;28;20132;-70
2023/08/09 05:11:34;;;;;;;1.10;1.00;;;;;;;23.89;43.99;96720.03;5016037;28;20137;-69
2023/08/09 05:14:01;;;;;;;0.88;0.88;;;;;;;24.16;43.47;96726.56;5016017;28;20049;-70
2023/08/09 05:16:28;;;;;;;1.00;0.90;;;;;;;24.46;44.99;96727.41;5015989;28;20048;-69
2023/08/09 05:18:55;;;;;;;1.00;0.95;;;;;;;24.56;44.70;96731.94;5015912;28;20042;-69
2023/08/09 05:21:22;;;;;;;1.13;0.70;;;;;;;24.82;43.45;96731.31;5015902;28;20092;-69
2023/08/09 05:23:50;;;;;;;2.42;0.88;;;;;;;25.05;42.18;96717.63;5015897;28;20480;-69
2023/08/09 05:26:19;;;;;;;1.73;1.00;;;;;;;25.22;41.92;96732.91;5015390;28;20056;-69
2023/08/09 05:28:47;;;;;;;1.73;0.88;;;;;;;25.13;40.95;96738.31;5015777;28;20046;-69
2023/08/09 05:31:14;;;;;;;1.40;0.77;;;;;;;25.27;43.25;96734.31;5015629;28;20053;-69
2023/08/09 05:33:41;;;;;;;2.63;0.90;;;;;;;25.46;42.00;96736.91;5015636;28;20048;-68
2023/08/09 05:36:09;;;;;;;2.58;1.02;;;;;;;25.69;43.10;96741.91;5015595;28;20054;-69
2023/08/09 05:38:36;;;;;;;0.90;0.80;;;;;;;25.97;40.21;96741.03;5015379;28;20042;-69
2023/08/09 05:41:03;;;;;;;0.73;0.70;;;;;;;26.21;40.98;96740.44;5015453;28;20104;-69
2023/08/09 05:43:32;;;;;;;0.80;0.80;;;;;;;26.05;38.46;96743.81;5015624;28;20411;-69
2023/08/09 05:46:00;;;;;;;3.22;0.90;;;;;;;25.41;39.38;96746.38;5015243;28;20050;-69
2023/08/09 05:48:27;;;;;;;0.70;0.70;;;;;;;25.20;39.49;96745.59;5014773;28;20096;-69
2023/08/09 05:50:54;;;;;;;0.88;0.77;;;;;;;24.73;40.58;96744.56;5015251;28;20407;-69
2023/08/09 05:53:21;;;;;;;1.77;0.80;;;;;;;24.96;39.90;96743.44;5015340;28;20053;-69
2023/08/09 05:55:48;;;;;;;3.20;1.70;;;;;;;24.96;39.67;96748.78;5015183;28;20052;-69
2023/08/09 05:58:16;;;;;;;1.42;1.30;;;;;;;25.06;39.65;96741.56;5015231;28;20141;-69
2023/08/09 06:00:45;;;;;;;2.17;1.67;;;;;;;25.38;39.38;96752.03;5015208;28;20085;-69
2023/08/09 06:03:13;;;;;;;1.48;1.30;;;;;;;25.76;38.25;96741.31;5015037;28;20503;-69
2023/08/09 06:05:40;;;;;;;3.75;1.20;;;;;;;25.82;37.54;96743.38;5014969;28;20050;-69
2023/08/09 06:08:08;;;;;;;1.10;0.68;;;;;;;25.78;37.52;96740.16;5014926;28;20503;-69
2023/08/09 06:10:35;;;;;;;6.40;0.98;;;;;;;25.57;37.63;96751.09;5015110;28;20046;-69
2023/08/09 06:13:02;;;;;;;1.27;0.82;;;;;;;25.38;39.04;96746.66;5014921;28;20049;-69
2023/08/09 06:15:31;;;;;;;0.85;0.75;;;;;;;25.51;38.73;96747.19;5014875;28;20118;-69
2023/08/09 06:17:59;;;;;;;0.65;0.63;;;;;;;25.72;38.40;96744.28;5014973;28;20056;-69
2023/08/09 06:20:27;;;;;;;0.77;0.73;;;;;;;25.94;36.95;96747.53;5014862;28;20056;-69
2023/08/09 06:22:57;;;;;;;0.75;0.70;;;;;;;26.02;37.62;96740.59;5014811;28;20058;-69
2023/08/09 06:25:24;;;;;;;1.50;0.70;;;;;;;25.82;38.63;96738.88;5014424;28;20050;-69
2023/08/09 06:27:54;;;;;;;2.72;0.60;;;;;;;26.01;37.72;96744.25;5014800;28;20419;-69
2023/08/09 06:30:22;;;;;;;0.68;0.68;;;;;;;25.98;36.73;96740.88;5014697;28;20050;-68
2023/08/09 06:32:49;;;;;;;1.88;0.75;;;;;;;26.11;37.49;96745.03;5014366;28;20137;-68
2023/08/09 06:35:18;;;;;;;1.10;1.00;;;;;;;26.30;35.57;96740.53;5014589;28;20129;-69
2023/08/09 06:37:46;;;;;;;1.42;0.80;;;;;;;26.42;34.64;96733.97;5014457;28;20046;-69
2023/08/09 06:40:16;;;;;;;2.63;0.70;;;;;;;26.62;34.48;96737.34;5014462;28;20061;-68
2023/08/09 06:42:43;;;;;;;1.95;0.80;;;;;;;26.69;34.65;96742.06;5014343;28;20046;-69
2023/08/09 06:45:11;;;;;;;0.73;0.68;;;;;;;25.72;36.08;96738.09;5014281;28;20129;-69
2023/08/09 06:47:38;;;;;;;1.38;0.50;;;;;;;25.81;38.69;96736.34;5014230;28;20049;-69
2023/08/09 06:50:08;;;;;;;1.55;0.70;;;;;;;25.98;37.19;96735.53;5014303;28;20132;-69
2023/08/09 06:52:37;;;;;;;2.70;0.77;;;;;;;25.98;36.82;96732.84;5014153;28;20050;-69
2023/08/09 06:55:04;;;;;;;0.88;0.63;;;;;;;25.79;37.69;96733.81;5014226;28;20077;-69
2023/08/09 06:57:31;;;;;;;1.83;0.70;;;;;;;25.81;36.03;96733.66;5014148;28;20049;-69
2023/08/09 06:59:59;;;;;;;0.60;0.60;;;;;;;25.76;34.29;96736.78;5014173;28;20049;-69
2023/08/09 07:02:27;;;;;;;1.10;0.65;;;;;;;25.68;35.94;96734.03;5014037;28;20386;-69
2023/08/09 07:04:57;;;;;;;0.40;0.40;;;;;;;26.07;34.92;96725.72;5014081;28;20042;-69
2023/08/09 07:07:25;;;;;;;0.60;0.50;;;;;;;26.17;33.87;96730.19;5013923;28;20261;-69
2023/08/09 07:09:53;;;;;;;0.60;0.60;;;;;;;25.79;34.13;96724.97;5013782;28;20050;-69
2023/08/09 07:12:22;;;;;;;1.23;1.13;;;;;;;25.79;35.71;96724.97;5013846;28;20054;-69
2023/08/09 07:14:49;;;;;;;1.45;0.63;;;;;;;25.56;35.97;96717.28;5013828;28;20046;-69
2023/08/09 07:17:16;;;;;;;2.05;0.75;;;;;;;25.33;36.80;96723.03;5013814;28;20045;-69
2023/08/09 07:19:44;;;;;;;3.22;0.90;;;;;;;25.24;39.37;96722.94;5013963;28;20569;-69
2023/08/09 07:22:11;;;;;;;0.63;0.50;;;;;;;25.61;36.21;96717.69;5013743;28;20496;-69
2023/08/09 07:24:38;;;;;;;0.75;0.60;;;;;;;26.20;37.86;96711.13;5013382;28;20054;-69
2023/08/09 07:27:07;;;;;;;1.63;0.68;;;;;;;26.39;35.36;96714.69;5013707;28;20085;-69
2023/08/09 07:29:35;;;;;;;3.50;0.70;;;;;;;26.27;36.08;96728.28;5013657;28;20554;-69
2023/08/09 07:32:02;;;;;;;1.60;0.68;;;;;;;25.96;36.81;96717.91;5013634;28;20050;-69
2023/08/09 07:34:29;;;;;;;0.70;0.70;;;;;;;25.88;37.29;96717.84;5013521;28;20046;-69
2023/08/09 07:36:56;;;;;;;2.55;0.77;;;;;;;26.27;37.17;96704.16;5013379;28;20499;-69
2023/08/09 07:39:25;;;;;;;1.25;0.70;;;;;;;26.87;35.84;96707.16;5013629;28;20481;-69
2023/08/09 07:41:52;;;;;;;2.90;0.75;;;;;;;26.97;34.43;96712.44;5013699;28;20046;-69
2023/08/09 07:44:20;;;;;;;1.27;0.70;;;;;;;26.87;35.30;96720.56;5013380;28;20057;-69
2023/08/09 07:46:48;;;;;;;1.65;0.77;;;;;;;26.59;32.83;96707.28;5013546;28;20054;-69
2023/08/09 07:49:14;;;;;;;1.65;0.88;;;;;;;26.27;33.87;96709.50;5013487;28;20115;-69
2023/08/09 07:51:43;;;;;;;1.48;0.68;;;;;;;25.85;35.47;96703.75;5013388;28;20049;-69
2023/08/09 07:54:11;;;;;;;2.97;0.80;;;;;;;26.20;36.20;96690.53;5013329;28;20077;-69
2023/08/09 07:56:38;;;;;;;1.42;0.77;;;;;;;26.09;37.81;96690.75;5013570;28;20077;-69
2023/08/09 07:59:06;;;;;;;1.98;0.77;;;;;;;25.85;35.81;96686.81;5013654;28;20133;-69
2023/08/09 08:01:34;;;;;;;0.60;0.57;;;;;;;26.30;33.61;96693.16;5013814;28;20137;-69
2023/08/09 08:04:01;;;;;;;1.00;0.60;;;;;;;26.71;32.13;96697.16;5013869;28;20400;-69
2023/08/09 08:06:30;;;;;;;2.72;0.65;;;;;;;26.43;32.15;96702.66;5013817;28;20049;-69
2023/08/09 08:08:57;;;;;;;1.05;0.60;;;;;;;26.21;34.20;96681.50;5013681;28;20052;-69
2023/08/09 08:11:24;;;;;;;1.55;0.70;;;;;;;26.37;32.00;96682.66;5016932;28;20050;-69
2023/08/09 08:13:51;;;;;;;0.80;0.70;;;;;;;26.71;34.70;96689.09;5017992;28;20053;-69
2023/08/09 08:16:20;;;;;;;0.90;0.70;;;;;;;27.25;32.75;96683.59;5017619;28;20565;-69
2023/08/09 08:18:48;;;;;;;1.05;0.68;;;;;;;27.24;31.51;96678.38;5017328;28;20056;-69
2023/08/09 08:21:15;;;;;;;1.92;0.70;;;;;;;26.54;31.30;96699.72;5017132;28;20406;-69
2023/08/09 08:23:42;;;;;;;0.70;0.60;;;;;;;25.77;33.16;96682.25;5017061;28;20124;-69
2023/08/09 08:26:09;;;;;;;0.80;0.68;;;;;;;25.31;33.95;96688.38;5016711;28;20077;-69
2023/08/09 08:28:36;;;;;;;1.08;0.80;;;;;;;24.98;34.14;96683.44;5016859;28;20057;-69
2023/08/09 08:31:05;;;;;;;1.42;0.90;;;;;;;25.12;33.87;96681.28;5017015;28;20053;-69
2023/08/09 08:33:32;;;;;;;0.50;0.50;;;;;;;25.04;34.24;96675.81;5017002;28;20062;-69
2023/08/09 08:36:01;;;;;;;2.72;0.70;;;;;;;25.17;35.53;96673.66;5016627;28;20050;-69
2023/08/09 08:38:28;;;;;;;0.73;0.60;;;;;;;25.27;37.28;96680.78;5016933;28;20069;-69
2023/08/09 08:40:55;;;;;;;1.23;0.80;;;;;;;25.07;34.83;96687.06;5016961;28;20125;-69
2023/08/09 08:43:23;;;;;;;1.60;0.80;;;;;;;24.94;34.25;96678.53;5016868;28;20050;-68
2023/08/09 08:45:50;;;;;;;2.42;0.80;;;;;;;24.47;34.86;96677.50;5016670;28;20056;-69
2023/08/09 08:48:19;;;;;;;1.65;0.80;;;;;;;24.53;36.06;96679.56;5016583;28;20419;-69
2023/08/09 08:50:48;;;;;;;0.93;0.73;;;;;;;25.03;35.05;96664.28;5016535;28;20428;-68
2023/08/09 08:53:18;;;;;;;4.18;1.00;;;;;;;25.40;32.93;96670.56;5016730;28;20054;-68
2023/08/09 08:55:45;;;;;;;0.80;0.70;;;;;;;25.77;34.14;96660.81;5016828;28;20081;-69
2023/08/09 08:58:14;;;;;;;0.70;0.60;;;;;;;26.10;35.23;96660.28;5016715;28;20057;-69
2023/08/09 09:00:41;;;;;;;1.40;0.70;;;;;;;26.24;32.50;96665.09;5016403;28;20049;-69
2023/08/09 09:03:08;;;;;;;2.00;0.65;;;;;;;26.38;35.20;96665.56;5016180;28;20140;-69
2023/08/09 09:05:35;;;;;;;2.50;0.70;;;;;;;26.49;31.35;96665.31;5016319;28;20085;-69
2023/08/09 09:08:03;;;;;;;0.70;0.60;;;;;;;26.60;30.15;96664.22;5016156;28;20108;-69
2023/08/09 09:10:32;;;;;;;1.30;0.60;;;;;;;26.19;30.27;96653.16;5016253;28;20550;-69
2023/08/09 09:12:59;;;;;;;0.90;0.70;;;;;;;26.13;32.51;96649.28;5015990;28;20407;-69
2023/08/09 09:15:28;;;;;;;0.73;0.68;;;;;;;26.02;31.04;96644.13;5016192;28;20042;-69
2023/08/09 09:17:55;;;;;;;0.85;0.70;;;;;;;25.93;32.59;96641.38;5016022;28;20112;-69
2023/08/09 09:20:26;;;;;;;1.60;0.70;;;;;;;25.82;33.16;96641.59;5015827;28;20080;-69
2023/08/09 09:22:54;;;;;;;1.17;0.60;;;;;;;25.49;31.47;96644.75;5014677;28;20046;-69
2023/08/09 09:25:22;;;;;;;0.90;0.68;;;;;;;25.47;32.59;96638.72;5015666;28;20137;-69
2023/08/09 09:27:54;;;;;;;0.80;0.70;;;;;;;25.71;32.99;96631.97;5015844;28;20054;-68
2023/08/09 09:30:24;;;;;;;1.33;0.90;;;;;;;26.29;31.96;96626.25;5015788;28;20042;-68
2023/08/09 09:32:59;;;;;;;2.58;0.40;;;;;;;26.68;31.51;96625.06;5015634;28;20049;-69
2023/08/09 09:35:29;;;;;;;2.28;0.80;;;;;;;26.67;32.41;96631.44;5015848;28;20050;-69
2023/08/09 09:37:58;;;;;;;1.05;0.95;;;;;;;26.60;31.88;96631.19;5015502;28;20057;-69
2023/08/09 09:40:27;;;;;;;0.63;0.63;;;;;;;26.36;30.49;96622.00;5015563;28;20124;-68
2023/08/09 09:42:57;;;;;;;1.08;0.80;;;;;;;25.99;32.82;96618.50;5015477;28;20049;-69
2023/08/09 09:45:27;;;;;;;3.23;0.90;;;;;;;25.76;33.26;96616.25;5015518;28;20550;-68
2023/08/09 09:47:55;;;;;;;0.75;0.65;;;;;;;25.64;32.63;96618.31;5015397;28;20307;-68
2023/08/09 09:50:23;;;;;;;0.65;0.65;;;;;;;25.58;34.37;96616.22;5015326;28;20140;-69
2023/08/09 09:52:51;;;;;;;1.15;0.60;;;;;;;25.46;32.56;96607.56;5015258;28;20093;-69
2023/08/09 09:55:20;;;;;;;0.90;0.65;;;;;;;25.46;33.86;96610.22;5015211;28;20077;-68
2023/08/09 09:57:50;;;;;;;1.05;0.73;;;;;;;25.39;33.31;96604.66;5015126;28;20077;-69
2023/08/09 10:00:20;;;;;;;1.42;0.70;;;;;;;25.36;34.33;96603.13;5015159;28;20050;-68
2023/08/09 10:02:49;;;;;;;2.88;0.77;;;;;;;25.49;33.56;96596.56;5015040;28;20393;-68
2023/08/09 10:05:18;;;;;;;0.70;0.70;;;;;;;25.64;33.93;96598.75;5015133;28;20416;-69
2023/08/09 10:07:46;;;;;;;1.20;0.68;;;;;;;25.81;33.00;96587.19;5014863;28;20054;-69
2023/08/09 10:10:14;;;;;;;2.78;0.80;;;;;;;25.70;33.39;96588.25;5015058;28;20049;-69
2023/08/09 10:12:48;;;;;;;0.90;0.90;;;;;;;25.78;34.04;96590.19;5015003;28;20101;-69
2023/08/09 10:15:17;;;;;;;1.70;0.70;;;;;;;25.79;34.54;96597.22;5014951;28;20132;-69
2023/08/09 10:17:49;;;;;;;1.30;0.65;;;;;;;25.93;33.21;96593.16;5014823;28;20048;-68
2023/08/09 10:20:18;;;;;;;0.50;0.50;;;;;;;26.07;34.04;96593.59;5014825;28;20049;-68
2023/08/09 10:22:47;;;;;;;1.08;0.70;;;;;;;26.09;34.85;96589.78;5014713;28;20042;-69
2023/08/09 10:25:14;;;;;;;1.70;1.05;;;;;;;26.04;33.45;96596.59;5014535;28;20145;-68
2023/08/09 10:27:53;;;;;;;1.42;0.52;;;;;;;25.98;33.85;96600.75;5014575;28;20550;-69
2023/08/09 10:30:26;;;;;;;0.50;0.50;;;;;;;25.83;34.20;96593.22;5014581;28;20050;-69
2023/08/09 10:32:58;;;;;;;1.55;0.70;;;;;;;25.60;33.02;96593.72;5014369;28;20530;-69
2023/08/09 10:35:46;;;;;;;1.00;0.63;;;;;;;25.40;32.31;96584.91;5014498;28;20381;-68
2023/08/09 10:38:14;;;;;;;0.90;0.70;;;;;;;25.05;32.42;96586.53;5014450;28;20407;-68
2023/08/09 10:40:42;;;;;;;0.73;0.60;;;;;;;25.01;33.55;96582.47;5014447;28;20500;-69
2023/08/09 10:43:11;;;;;;;1.50;0.75;;;;;;;24.96;32.54;96575.72;5014351;28;20054;-68
2023/08/09 10:45:39;;;;;;;0.88;0.70;;;;;;;25.04;33.26;96575.00;5014251;28;20491;-69
2023/08/09 10:48:26;;;;;;;0.68;0.60;;;;;;;25.17;33.99;96574.66;5014238;28;20050;-69
2023/08/09 10:51:18;;;;;;;0.60;0.60;;;;;;;25.31;34.47;96578.63;5014288;28;20046;-69
2023/08/09 10:53:53;;;;;;;0.85;0.65;;;;;;;25.56;36.15;96570.88;5014260;28;20053;-69
2023/08/09 10:56:31;;;;;;;0.80;0.70;;;;;;;26.06;32.66;96560.59;5014038;28;20054;-69
2023/08/09 10:59:05;;;;;;;0.80;0.80;;;;;;;26.31;31.00;96563.47;5014028;28;20137;-69
2023/08/09 11:01:33;;;;;;;1.30;0.82;;;;;;;26.46;30.81;96560.25;5014083;28;20396;-69
2023/08/09 11:04:02;;;;;;;0.57;0.57;;;;;;;26.80;33.37;96558.56;5014031;28;20049;-69
2023/08/09 11:06:34;;;;;;;0.63;0.52;;;;;;;26.73;29.71;96551.16;5014066;28;20407;-69
2023/08/09 11:09:09;;;;;;;1.02;0.60;;;;;;;26.33;30.52;96548.09;5013947;28;20046;-69
2023/08/09 11:11:39;;;;;;;0.82;0.75;;;;;;;26.51;32.52;96539.13;5014008;28;20470;-69
2023/08/09 11:14:06;;;;;;;1.20;0.80;;;;;;;26.73;30.97;96535.06;5013894;28;20050;-69
2023/08/09 11:16:34;;;;;;;1.38;0.60;;;;;;;26.98;31.18;96540.56;5013865;28;20077;-69
2023/08/09 11:19:04;;;;;;;1.85;0.70;;;;;;;27.08;30.28;96536.88;5013717;28;20053;-69
2023/08/09 11:21:42;;;;;;;0.75;0.70;;;;;;;27.13;28.11;96534.56;5013970;28;20065;-69
2023/08/09 11:24:10;;;;;;;1.55;0.77;;;;;;;26.99;28.14;96527.97;5013830;28;20057;-69
2023/08/09 11:26:39;;;;;;;1.25;0.70;;;;;;;27.23;29.08;96534.41;5013684;28;20085;-68
2023/08/09 11:29:07;;;;;;;0.40;0.40;;;;;;;27.28;28.80;96534.78;5013730;28;20463;-68
2023/08/09 11:31:39;;;;;;;0.60;0.60;;;;;;;27.49;29.09;96536.16;5013597;28;20049;-68
2023/08/09 11:34:08;;;;;;;2.67;0.50;;;;;;;27.47;28.58;96528.25;5013549;28;20053;-69
2023/08/09 11:36:36;;;;;;;1.00;0.70;;;;;;;27.20;30.28;96527.53;5013539;28;20512;-69
2023/08/09 11:39:04;;;;;;;2.53;0.60;;;;;;;27.17;29.31;96521.66;5013599;28;20088;-69